Time;durP1;ratioP1;P1;durP2;ratioP2;P2;SDS_P1;SDS_P2;PMS_P1;PMS_P2;Temp;Humidity;BMP_temperature;BMP_pressure;BME280_temperature;BME280_humidity;BME280_pressure;Samples;Min_cycle;Max_cycle;Signal;HPM_P1;HPM_P2
2023/03/18 00:00:24;;;;;;;9.87;6.77;;;9.80;71.90;;;;;;5054542;28;20459;-64
2023/03/18 00:02:51;;;;;;;10.53;6.50;;;9.90;73.50;;;;;;5054130;28;20459;-64
2023/03/18 00:05:19;;;;;;;12.07;6.50;;;9.90;71.80;;;;;;5054435;28;20936;-64
2023/03/18 00:07:46;;;;;;;8.30;6.90;;;10.00;71.60;;;;;;5054194;28;20530;-65
2023/03/18 00:10:15;;;;;;;11.23;6.20;;;9.90;71.60;;;;;;5054143;28;20542;-63
2023/03/18 00:12:43;;;;;;;11.67;5.97;;;9.90;71.50;;;;;;5054280;28;20476;-64
2023/03/18 00:15:13;;;;;;;8.20;6.20;;;9.90;72.60;;;;;;5053945;28;20570;-65
2023/03/18 00:17:40;;;;;;;11.13;6.43;;;9.90;74.70;;;;;;5054200;28;20454;-65
2023/03/18 00:20:08;;;;;;;11.57;6.50;;;9.90;72.70;;;;;;5054035;28;20804;-65
2023/03/18 00:22:37;;;;;;;6.63;5.30;;;9.90;73.00;;;;;;5054163;28;20490;-65
2023/03/18 00:25:06;;;;;;;7.00;5.40;;;10.00;71.20;;;;;;5054098;28;20935;-65
2023/03/18 00:27:35;;;;;;;8.40;6.00;;;9.90;72.10;;;;;;5054028;28;20824;-66
2023/03/18 00:30:04;;;;;;;8.80;6.27;;;9.90;73.20;;;;;;5053920;28;20458;-65
2023/03/18 00:32:31;;;;;;;8.33;6.30;;;9.90;72.60;;;;;;5056122;28;20465;-64
2023/03/18 00:35:00;;;;;;;8.83;5.80;;;9.90;72.20;;;;;;5057716;28;20462;-65
2023/03/18 00:37:30;;;;;;;6.50;5.30;;;9.80;71.80;;;;;;5057532;28;20487;-65
2023/03/18 00:39:58;;;;;;;8.13;6.27;;;9.80;72.90;;;;;;5057418;28;20491;-66
2023/03/18 00:42:25;;;;;;;10.77;5.03;;;9.70;74.50;;;;;;5057423;28;20909;-65
2023/03/18 00:44:53;;;;;;;9.00;6.03;;;9.80;73.50;;;;;;5057870;28;20491;-64
2023/03/18 00:47:20;;;;;;;8.57;5.83;;;9.70;73.50;;;;;;5057449;28;20497;-66
2023/03/18 00:49:48;;;;;;;7.97;5.43;;;9.70;73.90;;;;;;5058189;28;20459;-65
2023/03/18 00:52:14;;;;;;;8.67;6.27;;;9.70;75.80;;;;;;5057465;28;20466;-63
2023/03/18 00:54:41;;;;;;;10.93;6.47;;;9.70;73.70;;;;;;5057270;28;20562;-64
2023/03/18 00:57:09;;;;;;;6.00;5.23;;;9.70;74.60;;;;;;5056939;28;20982;-65
2023/03/18 00:59:36;;;;;;;9.97;5.60;;;9.70;73.90;;;;;;5057526;28;20455;-66
2023/03/18 01:02:04;;;;;;;8.57;6.00;;;9.70;73.90;;;;;;5057213;28;20567;-65
2023/03/18 01:04:32;;;;;;;11.93;6.13;;;9.70;76.00;;;;;;5057064;28;20870;-63
2023/03/18 01:07:00;;;;;;;15.10;6.67;;;9.70;73.70;;;;;;5057168;28;20518;-63
2023/03/18 01:09:26;;;;;;;10.80;6.50;;;9.60;74.10;;;;;;5056940;28;20522;-67
2023/03/18 01:11:53;;;;;;;9.40;6.23;;;9.50;74.40;;;;;;5057840;28;20465;-65
2023/03/18 01:14:20;;;;;;;6.30;5.70;;;9.50;74.40;;;;;;5059239;28;20483;-65
2023/03/18 01:16:47;;;;;;;5.77;5.17;;;9.50;74.40;;;;;;5063684;28;20470;-65
2023/03/18 01:19:16;;;;;;;8.07;5.60;;;9.50;76.70;;;;;;5063873;28;20470;-65
2023/03/18 01:21:42;;;;;;;7.50;4.90;;;9.50;75.00;;;;;;5060152;28;20546;-66
2023/03/18 01:24:10;;;;;;;8.03;5.80;;;9.40;74.60;;;;;;5058592;28;20486;-65
2023/03/18 01:26:37;;;;;;;11.67;5.80;;;9.50;77.40;;;;;;5057972;28;20559;-65
2023/03/18 01:29:04;;;;;;;5.67;4.53;;;9.50;75.70;;;;;;5058496;28;20783;-64
2023/03/18 01:31:33;;;;;;;6.10;4.97;;;9.50;77.70;;;;;;5057128;28;20462;-65
2023/03/18 01:34:00;;;;;;;6.50;5.50;;;9.50;75.20;;;;;;5057942;28;20455;-64
2023/03/18 01:36:29;;;;;;;7.83;5.90;;;9.40;77.40;;;;;;5057710;28;20525;-65
2023/03/18 01:38:56;;;;;;;7.03;5.70;;;9.40;75.90;;;;;;5057173;28;20462;-65
2023/03/18 01:41:24;;;;;;;10.97;6.57;;;9.40;76.90;;;;;;5057288;28;20459;-65
2023/03/18 01:43:53;;;;;;;6.77;5.43;;;9.40;75.90;;;;;;5056020;28;20459;-65
2023/03/18 01:46:38;;;;;;;10.57;5.33;;;9.30;77.70;;;;;;5056766;28;20546;-67
2023/03/18 01:49:13;;;;;;;8.80;6.10;;;9.30;75.60;;;;;;5056444;28;20450;-63
2023/03/18 01:51:45;;;;;;;8.70;5.73;;;9.30;76.80;;;;;;5056008;28;20435;-65
2023/03/18 01:54:14;;;;;;;7.00;5.13;;;9.20;75.80;;;;;;5056230;28;20493;-65
2023/03/18 01:56:43;;;;;;;6.80;5.50;;;9.30;76.70;;;;;;5056077;28;20482;-65
2023/03/18 01:59:11;;;;;;;8.90;6.40;;;9.20;76.00;;;;;;5056021;28;20795;-65
2023/03/18 02:01:42;;;;;;;8.53;5.90;;;9.30;78.50;;;;;;5055857;28;20459;-67
2023/03/18 02:04:11;;;;;;;7.80;5.03;;;9.30;76.50;;;;;;5056050;28;20459;-65
2023/03/18 02:06:38;;;;;;;10.10;5.73;;;9.20;77.00;;;;;;5055949;28;20455;-65
2023/03/18 02:09:07;;;;;;;6.07;5.07;;;9.30;77.00;;;;;;5055608;28;20920;-65
2023/03/18 02:11:40;;;;;;;10.73;5.80;;;9.30;77.50;;;;;;5055514;28;20455;-65
2023/03/18 02:14:09;;;;;;;8.77;5.13;;;9.30;76.80;;;;;;5056077;28;20453;-64
2023/03/18 02:16:42;;;;;;;6.83;5.03;;;9.20;77.00;;;;;;5055920;28;20473;-65
2023/03/18 02:19:22;;;;;;;5.57;4.97;;;9.10;76.40;;;;;;5055937;28;20444;-65
2023/03/18 02:21:55;;;;;;;7.30;5.63;;;9.20;77.20;;;;;;5055845;28;20523;-64
2023/03/18 02:24:35;;;;;;;7.70;5.50;;;9.20;76.90;;;;;;5055567;28;20440;-64
2023/03/18 02:27:06;;;;;;;7.93;5.00;;;9.10;77.20;;;;;;5055426;28;20471;-65
2023/03/18 02:29:36;;;;;;;6.80;4.93;;;9.10;78.00;;;;;;5055360;28;20479;-65
2023/03/18 02:32:05;;;;;;;8.10;5.40;;;9.10;78.10;;;;;;5055558;28;20459;-65
2023/03/18 02:34:34;;;;;;;7.57;5.20;;;9.10;78.70;;;;;;5055234;28;20459;-65
2023/03/18 02:37:01;;;;;;;9.63;5.70;;;9.00;78.80;;;;;;5055638;28;21011;-65
2023/03/18 02:39:29;;;;;;;5.93;5.13;;;9.00;78.90;;;;;;5055522;28;20486;-65
2023/03/18 02:41:56;;;;;;;6.23;5.27;;;9.00;78.80;;;;;;5055186;28;20469;-64
2023/03/18 02:44:23;;;;;;;9.10;5.93;;;9.00;79.00;;;;;;5055241;28;20502;-64
2023/03/18 02:46:55;;;;;;;12.53;6.27;;;9.00;79.10;;;;;;5055163;28;20462;-65
2023/03/18 02:49:25;;;;;;;7.50;5.43;;;9.00;78.90;;;;;;5054669;28;20457;-64
2023/03/18 02:51:52;;;;;;;7.93;5.30;;;9.00;79.10;;;;;;5054688;28;20912;-63
2023/03/18 02:54:22;;;;;;;9.60;6.30;;;9.00;78.80;;;;;;5054208;28;20459;-64
2023/03/18 02:56:49;;;;;;;8.33;5.20;;;9.00;78.90;;;;;;5054576;28;20577;-64
2023/03/18 02:59:17;;;;;;;9.23;5.87;;;9.00;79.20;;;;;;5054989;28;20470;-64
2023/03/18 03:01:45;;;;;;;7.53;5.47;;;9.10;78.70;;;;;;5054852;28;20455;-63
2023/03/18 03:04:16;;;;;;;9.37;6.20;;;9.10;80.40;;;;;;5054397;28;20459;-63
2023/03/18 03:06:44;;;;;;;10.10;6.50;;;9.10;78.40;;;;;;5054724;28;20440;-63
2023/03/18 03:09:13;;;;;;;8.70;5.27;;;9.00;78.30;;;;;;5054468;28;20551;-62
2023/03/18 03:11:40;;;;;;;8.00;5.93;;;8.90;78.80;;;;;;5054921;28;20470;-65
2023/03/18 03:14:08;;;;;;;8.50;6.10;;;8.90;78.90;;;;;;5054322;28;20485;-64
2023/03/18 03:16:35;;;;;;;9.67;5.83;;;8.90;78.80;;;;;;5054271;28;20462;-65
2023/03/18 03:19:03;;;;;;;13.10;6.20;;;9.00;79.50;;;;;;5054633;28;20852;-64
2023/03/18 03:21:31;;;;;;;11.60;5.70;;;9.00;78.90;;;;;;5054501;28;21000;-65
2023/03/18 03:23:59;;;;;;;11.47;5.70;;;9.00;79.80;;;;;;5054569;28;20904;-64
2023/03/18 03:26:26;;;;;;;8.30;5.63;;;9.00;79.10;;;;;;5054579;28;20469;-65
2023/03/18 03:28:52;;;;;;;8.73;6.00;;;9.00;79.00;;;;;;5054466;28;20546;-66
2023/03/18 03:31:19;;;;;;;8.53;5.90;;;8.90;78.80;;;;;;5055302;28;20472;-64
2023/03/18 03:33:46;;;;;;;7.23;5.40;;;9.00;79.60;;;;;;5054508;28;20455;-65
2023/03/18 03:36:15;;;;;;;8.53;5.60;;;9.00;79.10;;;;;;5054014;28;20459;-65
2023/03/18 03:38:44;;;;;;;7.60;5.87;;;9.00;79.20;;;;;;5053949;28;20523;-65
2023/03/18 03:41:14;;;;;;;7.10;5.70;;;8.90;79.70;;;;;;5054500;28;20558;-63
2023/03/18 03:43:41;;;;;;;10.20;5.70;;;9.00;79.70;;;;;;5055824;28;20802;-64
2023/03/18 03:46:09;;;;;;;7.67;6.00;;;9.00;80.70;;;;;;5054110;28;20542;-65
2023/03/18 03:48:36;;;;;;;7.20;4.90;;;8.90;79.90;;;;;;5054240;28;20562;-64
2023/03/18 03:51:04;;;;;;;7.13;5.50;;;9.00;81.00;;;;;;5054151;28;20522;-65
2023/03/18 03:53:32;;;;;;;11.33;5.53;;;9.00;80.00;;;;;;5054619;28;20501;-64
2023/03/18 03:56:00;;;;;;;7.53;5.27;;;9.00;80.60;;;;;;5053885;28;20521;-64
2023/03/18 03:58:28;;;;;;;7.33;5.13;;;9.00;80.10;;;;;;5053799;28;20493;-65
2023/03/18 04:00:54;;;;;;;7.03;5.60;;;8.90;80.30;;;;;;5054076;28;20455;-64
2023/03/18 04:03:22;;;;;;;8.50;5.77;;;8.90;81.10;;;;;;5053670;28;20451;-64
2023/03/18 04:05:49;;;;;;;7.20;5.67;;;8.90;81.00;;;;;;5055434;28;20469;-63
2023/03/18 04:08:16;;;;;;;8.90;6.30;;;8.90;81.30;;;;;;5057892;28;20912;-64
2023/03/18 04:10:43;;;;;;;7.57;5.97;;;8.90;81.90;;;;;;5058105;28;20546;-64
2023/03/18 04:13:11;;;;;;;9.33;6.53;;;8.90;82.60;;;;;;5058025;28;20455;-64
2023/03/18 04:15:38;;;;;;;8.83;5.40;;;8.90;81.40;;;;;;5057496;28;20487;-63
2023/03/18 04:18:06;;;;;;;7.40;5.20;;;8.90;82.60;;;;;;5057746;28;20556;-65
2023/03/18 04:20:34;;;;;;;8.50;5.80;;;8.90;81.90;;;;;;5057629;28;20470;-64
2023/03/18 04:23:01;;;;;;;7.27;5.47;;;8.90;82.30;;;;;;5057832;28;20455;-64
2023/03/18 04:25:28;;;;;;;8.13;5.80;;;8.90;82.70;;;;;;5058122;28;20460;-64
2023/03/18 04:27:55;;;;;;;9.10;5.70;;;8.90;83.00;;;;;;5058205;28;20900;-63
2023/03/18 04:30:24;;;;;;;6.63;5.47;;;8.90;83.10;;;;;;5058975;28;20963;-66
2023/03/18 04:32:52;;;;;;;7.20;5.60;;;8.90;83.20;;;;;;5057734;28;20472;-65
2023/03/18 04:35:19;;;;;;;10.07;5.03;;;8.80;82.80;;;;;;5057388;28;20912;-63
2023/03/18 04:37:47;;;;;;;10.13;5.73;;;8.80;83.10;;;;;;5057195;28;20554;-65
2023/03/18 04:40:14;;;;;;;7.73;5.00;;;8.80;83.80;;;;;;5057130;28;20454;-64
2023/03/18 04:42:41;;;;;;;8.97;5.93;;;8.80;83.30;;;;;;5057617;28;20459;-65
2023/03/18 04:45:08;;;;;;;8.50;5.70;;;8.80;83.40;;;;;;5058170;28;20825;-64
2023/03/18 04:47:37;;;;;;;9.43;5.50;;;8.70;83.80;;;;;;5057546;28;20875;-64
2023/03/18 04:50:05;;;;;;;8.50;5.90;;;8.70;84.20;;;;;;5057241;28;20557;-65
2023/03/18 04:52:32;;;;;;;8.77;5.60;;;8.70;84.10;;;;;;5057730;28;20542;-65
2023/03/18 04:54:59;;;;;;;11.50;6.00;;;8.80;84.60;;;;;;5057155;28;20462;-64
2023/03/18 04:57:26;;;;;;;7.63;6.20;;;8.70;84.90;;;;;;5057374;28;20505;-65
2023/03/18 04:59:53;;;;;;;10.00;5.20;;;8.70;85.30;;;;;;5057045;28;20491;-64
2023/03/18 05:02:20;;;;;;;7.20;5.20;;;8.70;85.30;;;;;;5056998;28;20539;-64
2023/03/18 05:04:48;;;;;;;6.80;5.23;;;8.70;85.60;;;;;;5057092;28;20485;-65
2023/03/18 05:07:16;;;;;;;6.90;5.20;;;8.60;86.30;;;;;;5056720;28;20539;-64
2023/03/18 05:09:43;;;;;;;8.43;5.70;;;8.60;86.40;;;;;;5056587;28;20466;-65
2023/03/18 05:12:13;;;;;;;8.60;5.33;;;8.60;86.80;;;;;;5056869;28;20804;-64
2023/03/18 05:14:41;;;;;;;5.90;5.30;;;8.60;87.50;;;;;;5057033;28;20497;-63
2023/03/18 05:17:14;;;;;;;9.47;5.90;;;8.60;88.10;;;;;;5055942;28;20854;-64
2023/03/18 05:19:41;;;;;;;7.37;5.30;;;8.60;88.70;;;;;;5056979;28;20458;-64
2023/03/18 05:22:10;;;;;;;7.50;5.50;;;8.60;88.70;;;;;;5056863;28;20566;-64
2023/03/18 05:24:37;;;;;;;8.37;5.40;;;8.60;89.20;;;;;;5056720;28;20795;-65
2023/03/18 05:27:04;;;;;;;8.90;6.13;;;8.50;89.50;;;;;;5057116;28;20498;-65
2023/03/18 05:29:32;;;;;;;12.50;5.40;;;8.50;90.60;;;;;;5056929;28;20989;-64
2023/03/18 05:31:58;;;;;;;7.50;5.53;;;8.50;90.40;;;;;;5056555;28;20558;-64
2023/03/18 05:34:26;;;;;;;9.73;6.07;;;8.50;90.70;;;;;;5056477;28;20951;-65
2023/03/18 05:36:53;;;;;;;7.90;5.23;;;8.50;90.70;;;;;;5056415;28;20465;-65
2023/03/18 05:39:21;;;;;;;8.03;5.80;;;8.50;91.00;;;;;;5056309;28;20455;-64
2023/03/18 05:41:48;;;;;;;9.13;5.40;;;8.50;91.50;;;;;;5056640;28;20551;-64
2023/03/18 05:44:15;;;;;;;10.07;5.73;;;8.50;91.40;;;;;;5056457;28;20485;-65
2023/03/18 05:46:42;;;;;;;9.17;6.30;;;8.40;91.60;;;;;;5056835;28;20491;-64
2023/03/18 05:49:09;;;;;;;7.40;5.70;;;8.40;91.90;;;;;;5056332;28;20452;-65
2023/03/18 05:51:36;;;;;;;8.00;5.20;;;8.40;92.10;;;;;;5056173;28;20465;-65
2023/03/18 05:54:04;;;;;;;8.23;5.40;;;8.40;92.30;;;;;;5056028;28;20513;-64
2023/03/18 05:56:32;;;;;;;11.53;5.60;;;8.40;92.40;;;;;;5056218;28;20455;-65
2023/03/18 05:58:59;;;;;;;9.10;5.53;;;8.40;92.50;;;;;;5056240;28;20506;-65
2023/03/18 06:01:26;;;;;;;6.97;6.10;;;8.40;92.70;;;;;;5056076;28;20857;-71
2023/03/18 06:03:54;;;;;;;11.40;5.30;;;8.40;92.70;;;;;;5055655;28;20454;-64
2023/03/18 06:06:20;;;;;;;9.27;5.07;;;8.50;92.90;;;;;;5056302;28;20455;-65
2023/03/18 06:08:48;;;;;;;9.60;5.30;;;8.50;93.30;;;;;;5056804;28;20451;-66
2023/03/18 06:11:15;;;;;;;6.27;5.37;;;8.50;93.30;;;;;;5056680;28;20463;-65
2023/03/18 06:13:44;;;;;;;9.60;6.00;;;8.50;93.40;;;;;;5056550;28;20502;-64
2023/03/18 06:16:11;;;;;;;8.60;5.50;;;8.50;93.40;;;;;;5056068;28;20489;-65
2023/03/18 06:18:39;;;;;;;9.93;6.53;;;8.60;93.40;;;;;;5056082;28;20482;-65
2023/03/18 06:21:08;;;;;;;8.07;5.90;;;8.60;93.90;;;;;;5055795;28;20459;-64
2023/03/18 06:23:35;;;;;;;7.70;5.63;;;8.50;93.80;;;;;;5056224;28;20502;-65
2023/03/18 06:26:03;;;;;;;8.90;6.20;;;8.50;94.10;;;;;;5055678;28;20459;-64
2023/03/18 06:28:30;;;;;;;8.67;6.10;;;8.50;94.30;;;;;;5055263;28;20457;-64
2023/03/18 06:30:58;;;;;;;11.10;6.83;;;8.50;94.80;;;;;;5056898;28;20469;-65
2023/03/18 06:33:25;;;;;;;8.17;5.80;;;8.40;94.80;;;;;;5055546;28;20554;-64
2023/03/18 06:35:53;;;;;;;6.70;5.50;;;8.40;95.30;;;;;;5055607;28;20465;-64
2023/03/18 06:38:20;;;;;;;11.73;5.80;;;8.40;95.60;;;;;;5055245;28;20510;-62
2023/03/18 06:40:47;;;;;;;18.30;6.20;;;8.40;95.80;;;;;;5055179;28;20470;-61
2023/03/18 06:43:15;;;;;;;10.27;5.90;;;8.40;95.90;;;;;;5055249;28;20466;-64
2023/03/18 06:45:42;;;;;;;6.83;5.50;;;8.40;96.20;;;;;;5054957;28;20915;-64
2023/03/18 06:48:10;;;;;;;7.80;5.77;;;8.40;96.30;;;;;;5055626;28;20451;-69
2023/03/18 06:50:38;;;;;;;8.50;7.03;;;8.40;96.60;;;;;;5054926;28;20985;-64
2023/03/18 06:53:05;;;;;;;9.27;6.30;;;8.40;96.90;;;;;;5055106;28;20504;-64
2023/03/18 06:55:32;;;;;;;9.37;5.80;;;8.40;97.30;;;;;;5054790;28;20455;-66
2023/03/18 06:58:00;;;;;;;7.43;5.70;;;8.40;97.50;;;;;;5054987;28;20499;-62
2023/03/18 07:00:27;;;;;;;7.90;5.83;;;8.40;98.00;;;;;;5055130;28;20536;-64
2023/03/18 07:02:54;;;;;;;8.40;6.17;;;8.40;98.30;;;;;;5055446;28;20554;-65
2023/03/18 07:05:23;;;;;;;9.13;5.80;;;8.40;99.00;;;;;;5055141;28;20916;-62
2023/03/18 07:07:50;;;;;;;9.77;6.60;;;8.40;99.00;;;;;;5055270;28;20487;-65
2023/03/18 07:10:20;;;;;;;9.20;6.23;;;8.40;99.90;;;;;;5054804;28;20913;-64
2023/03/18 07:12:47;;;;;;;7.00;5.40;;;8.50;99.60;;;;;;5054959;28;20865;-65
2023/03/18 07:15:15;;;;;;;9.80;6.60;;;8.50;99.70;;;;;;5054810;28;20563;-65
2023/03/18 07:17:42;;;;;;;10.63;6.57;;;8.60;99.90;;;;;;5054915;28;20466;-65
2023/03/18 07:20:10;;;;;;;9.83;6.47;;;8.70;99.60;;;;;;5055177;28;20762;-65
2023/03/18 07:22:38;;;;;;;11.43;6.03;;;8.70;99.60;;;;;;5054930;28;20455;-65
2023/03/18 07:25:06;;;;;;;9.37;6.00;;;8.70;99.60;;;;;;5054815;28;20485;-65
2023/03/18 07:27:33;;;;;;;10.27;6.33;;;8.70;99.80;;;;;;5054680;28;20463;-65
2023/03/18 07:30:00;;;;;;;12.70;5.73;;;8.70;99.90;;;;;;5054842;28;20558;-64
2023/03/18 07:32:28;;;;;;;10.27;6.37;;;8.80;99.90;;;;;;5054914;28;21001;-65
2023/03/18 07:34:56;;;;;;;9.00;6.10;;;8.80;99.90;;;;;;5055319;28;20834;-64
2023/03/18 07:37:23;;;;;;;10.43;6.20;;;8.90;99.90;;;;;;5054675;28;20459;-64
2023/03/18 07:39:52;;;;;;;9.73;6.80;;;8.90;99.90;;;;;;5054989;28;20482;-65
2023/03/18 07:42:19;;;;;;;20.50;7.70;;;9.00;99.90;;;;;;5061026;28;20459;-65
2023/03/18 07:44:45;;;;;;;10.33;5.57;;;9.00;99.90;;;;;;5060689;28;20532;-65
2023/03/18 07:47:14;;;;;;;9.90;6.43;;;9.10;99.90;;;;;;5060815;28;20550;-65
2023/03/18 07:49:41;;;;;;;12.63;6.80;;;9.10;99.90;;;;;;5060998;28;20786;-65
2023/03/18 07:52:09;;;;;;;9.90;6.40;;;9.30;99.90;;;;;;5060515;28;20466;-64
2023/03/18 07:54:36;;;;;;;8.47;5.80;;;9.30;99.90;;;;;;5060947;28;20454;-65
2023/03/18 07:57:05;;;;;;;9.03;6.17;;;9.50;99.90;;;;;;5060626;28;20457;-65
2023/03/18 07:59:33;;;;;;;7.80;6.13;;;9.50;99.90;;;;;;5060766;28;20804;-65
2023/03/18 08:02:00;;;;;;;13.80;6.63;;;9.60;99.90;;;;;;5060359;28;21012;-65
2023/03/18 08:04:27;;;;;;;7.77;5.70;;;9.70;99.90;;;;;;5060620;28;20455;-65
2023/03/18 08:06:54;;;;;;;8.27;6.23;;;9.80;99.90;;;;;;5060372;28;20459;-66
2023/03/18 08:09:21;;;;;;;9.90;6.60;;;9.90;99.90;;;;;;5060859;28;20550;-65
2023/03/18 08:11:48;;;;;;;9.37;6.53;;;9.90;99.90;;;;;;5060882;28;20556;-66
2023/03/18 08:14:16;;;;;;;10.57;7.00;;;10.00;99.90;;;;;;5060608;28;20820;-64
2023/03/18 08:16:43;;;;;;;10.93;6.20;;;10.10;99.90;;;;;;5060998;28;20504;-65
2023/03/18 08:19:09;;;;;;;9.83;6.83;;;10.20;99.90;;;;;;5060698;28;20574;-65
2023/03/18 08:21:38;;;;;;;8.23;5.97;;;10.30;99.90;;;;;;5060836;28;20473;-64
2023/03/18 08:24:05;;;;;;;11.23;6.80;;;10.40;99.70;;;;;;5060671;28;20486;-65
2023/03/18 08:26:32;;;;;;;11.97;6.20;;;10.50;99.70;;;;;;5060591;28;20466;-65
2023/03/18 08:28:59;;;;;;;8.57;6.30;;;10.50;99.60;;;;;;5060787;28;20450;-65
2023/03/18 08:31:27;;;;;;;7.80;5.80;;;10.60;99.60;;;;;;5060615;28;20537;-64
2023/03/18 08:33:55;;;;;;;8.30;6.17;;;10.70;99.70;;;;;;5060961;28;20542;-66
2023/03/18 08:36:22;;;;;;;10.53;6.63;;;10.70;99.40;;;;;;5060346;28;20459;-65
2023/03/18 08:38:49;;;;;;;7.43;5.10;;;10.80;99.60;;;;;;5060245;28;20553;-65
2023/03/18 08:41:16;;;;;;;8.20;5.53;;;10.80;99.30;;;;;;5061381;28;20459;-66
2023/03/18 08:43:44;;;;;;;9.00;5.80;;;10.90;99.80;;;;;;5060478;28;20458;-66
2023/03/18 08:46:11;;;;;;;7.10;5.50;;;11.00;99.50;;;;;;5060414;28;20841;-65
2023/03/18 08:48:40;;;;;;;9.23;6.60;;;11.10;99.50;;;;;;5060682;28;20537;-65
2023/03/18 08:51:08;;;;;;;9.33;5.70;;;11.20;99.40;;;;;;5060349;28;20463;-65
2023/03/18 08:53:35;;;;;;;8.20;5.90;;;11.40;98.80;;;;;;5056009;28;20897;-66
2023/03/18 08:56:04;;;;;;;10.17;6.30;;;11.40;98.60;;;;;;5056882;28;20569;-65
2023/03/18 08:58:31;;;;;;;8.93;6.37;;;11.50;98.20;;;;;;5056801;28;20478;-65
2023/03/18 09:00:58;;;;;;;8.13;5.40;;;11.70;98.20;;;;;;5056725;28;20474;-65
2023/03/18 09:03:26;;;;;;;7.60;6.03;;;11.70;98.10;;;;;;5057340;28;20459;-65
2023/03/18 09:05:54;;;;;;;9.47;6.53;;;11.80;97.90;;;;;;5057008;28;20455;-65
2023/03/18 09:08:22;;;;;;;7.37;5.60;;;11.80;98.00;;;;;;5057194;28;20462;-64
2023/03/18 09:10:52;;;;;;;8.73;6.33;;;11.90;98.30;;;;;;5056476;28;20553;-65
2023/03/18 09:13:19;;;;;;;10.50;5.87;;;12.10;98.00;;;;;;5056624;28;20494;-65
2023/03/18 09:15:46;;;;;;;7.03;6.33;;;12.20;97.40;;;;;;5056669;28;20479;-65
2023/03/18 09:18:13;;;;;;;9.43;6.23;;;12.30;97.20;;;;;;5056861;28;20454;-65
2023/03/18 09:20:41;;;;;;;9.33;6.40;;;12.40;96.90;;;;;;5056702;28;20520;-65
2023/03/18 09:23:10;;;;;;;10.27;6.80;;;12.50;97.10;;;;;;5056322;28;20553;-64
2023/03/18 09:25:37;;;;;;;8.87;6.20;;;12.50;97.00;;;;;;5057122;28;20931;-65
2023/03/18 09:28:04;;;;;;;9.20;5.90;;;12.60;96.80;;;;;;5056646;28;20547;-65
2023/03/18 09:30:32;;;;;;;7.97;5.67;;;12.60;96.90;;;;;;5056770;28;20451;-65
2023/03/18 09:32:59;;;;;;;7.27;6.13;;;12.70;96.50;;;;;;5056406;28;20474;-63
2023/03/18 09:35:27;;;;;;;6.40;5.17;;;12.80;97.30;;;;;;5056622;28;20787;-65
2023/03/18 09:37:55;;;;;;;9.37;5.77;;;12.90;96.30;;;;;;5056607;28;20459;-65
2023/03/18 09:40:27;;;;;;;7.83;6.37;;;12.90;96.00;;;;;;5056343;28;20482;-65
2023/03/18 09:43:19;;;;;;;9.10;6.30;;;13.10;96.00;;;;;;5056696;28;20448;-65
2023/03/18 09:45:58;;;;;;;9.13;5.70;;;13.10;95.30;;;;;;5056387;28;20448;-65
2023/03/18 09:48:45;;;;;;;7.27;5.50;;;13.20;95.40;;;;;;5056408;28;20552;-65
2023/03/18 09:51:22;;;;;;;7.60;6.07;;;13.20;95.50;;;;;;5056541;28;20493;-65
2023/03/18 09:53:55;;;;;;;8.60;6.40;;;13.30;94.80;;;;;;5056653;28;20470;-66
2023/03/18 09:56:27;;;;;;;7.53;5.60;;;13.30;95.10;;;;;;5055991;28;20841;-64
2023/03/18 09:58:58;;;;;;;7.20;5.83;;;13.40;95.20;;;;;;5055670;28;20963;-65
2023/03/18 10:01:27;;;;;;;8.27;6.40;;;13.40;95.20;;;;;;5056453;28;20509;-65
2023/03/18 10:04:00;;;;;;;7.90;5.70;;;13.50;95.90;;;;;;5056125;28;20545;-66
2023/03/18 10:06:27;;;;;;;7.97;6.03;;;13.70;95.20;;;;;;5056332;28;20494;-65
2023/03/18 10:09:06;;;;;;;9.10;6.10;;;13.80;94.60;;;;;;5055847;28;20542;-65
2023/03/18 10:11:41;;;;;;;6.63;5.43;;;13.90;94.20;;;;;;5055830;28;20441;-66
2023/03/18 10:14:29;;;;;;;7.47;5.70;;;14.00;94.70;;;;;;5055919;28;20490;-66
2023/03/18 10:17:05;;;;;;;8.93;5.70;;;14.10;94.40;;;;;;5056560;28;20451;-65
2023/03/18 10:19:33;;;;;;;8.30;6.30;;;14.30;94.00;;;;;;5056106;28;20467;-65
2023/03/18 10:22:12;;;;;;;8.07;5.70;;;14.50;93.30;;;;;;5056413;28;20459;-65
2023/03/18 10:24:48;;;;;;;13.53;6.00;;;14.60;92.40;;;;;;5056938;28;20481;-64
2023/03/18 10:27:21;;;;;;;6.80;5.70;;;14.70;93.30;;;;;;5056526;28;20446;-66
2023/03/18 10:29:56;;;;;;;7.50;5.43;;;14.90;91.90;;;;;;5056281;28;20440;-67
2023/03/18 10:32:31;;;;;;;12.30;6.20;;;15.00;91.50;;;;;;5056761;28;20490;-63
2023/03/18 10:35:08;;;;;;;9.90;5.90;;;15.10;91.40;;;;;;5055744;28;20538;-61
2023/03/18 10:37:48;;;;;;;13.40;7.23;;;15.20;91.00;;;;;;5055823;28;20584;-62
2023/03/18 10:40:17;;;;;;;10.37;7.30;;;15.30;91.10;;;;;;5055442;28;20469;-61
2023/03/18 10:42:48;;;;;;;8.17;5.60;;;15.40;90.40;;;;;;5055387;28;20451;-59
2023/03/18 10:45:23;;;;;;;7.30;5.37;;;15.50;89.80;;;;;;5055449;28;20920;-63
2023/03/18 10:48:03;;;;;;;8.20;5.47;;;15.50;90.00;;;;;;5055856;28;20465;-62
2023/03/18 10:50:36;;;;;;;9.23;6.60;;;15.60;88.10;;;;;;5055657;28;20435;-62
2023/03/18 10:53:14;;;;;;;8.30;6.10;;;15.70;89.50;;;;;;5055345;28;20785;-60
2023/03/18 10:55:50;;;;;;;9.30;6.20;;;15.70;90.30;;;;;;5056443;28;20506;-62
2023/03/18 10:58:19;;;;;;;7.57;5.87;;;15.70;89.50;;;;;;5056265;28;20533;-61
2023/03/18 11:00:46;;;;;;;7.80;5.77;;;15.70;90.10;;;;;;5055503;28;20494;-62
2023/03/18 11:03:21;;;;;;;7.80;6.30;;;15.70;90.00;;;;;;5055245;28;20451;-63
2023/03/18 11:05:50;;;;;;;9.70;5.77;;;15.70;90.10;;;;;;5055160;28;20911;-62
2023/03/18 11:08:31;;;;;;;12.17;7.60;;;15.80;90.30;;;;;;5055199;28;20466;-61
2023/03/18 11:10:58;;;;;;;10.53;6.20;;;15.90;90.70;;;;;;5055794;28;20517;-61
2023/03/18 11:13:26;;;;;;;7.77;5.90;;;15.90;90.60;;;;;;5055339;28;20470;-61
2023/03/18 11:15:57;;;;;;;10.63;5.63;;;16.10;91.00;;;;;;5054365;28;20519;-62
2023/03/18 11:18:26;;;;;;;12.73;7.27;;;16.20;90.40;;;;;;5056405;28;20443;-62
2023/03/18 11:20:59;;;;;;;8.20;5.93;;;16.30;90.30;;;;;;5055206;28;20485;-63
2023/03/18 11:23:45;;;;;;;10.87;6.07;;;16.30;90.20;;;;;;5057991;28;20889;-61
2023/03/18 11:26:20;;;;;;;7.53;5.30;;;16.40;90.50;;;;;;5059689;28;20443;-63
2023/03/18 11:28:48;;;;;;;7.43;5.53;;;16.50;89.80;;;;;;5056637;28;20912;-62
2023/03/18 11:31:17;;;;;;;11.67;6.00;;;16.70;90.20;;;;;;5057935;28;20491;-64
2023/03/18 11:33:44;;;;;;;8.47;6.27;;;16.80;89.70;;;;;;5055476;28;20455;-62
2023/03/18 11:36:17;;;;;;;8.23;6.30;;;16.80;88.50;;;;;;5054809;28;20542;-63
2023/03/18 11:38:55;;;;;;;8.27;6.10;;;16.90;88.40;;;;;;5054710;28;20486;-61
2023/03/18 11:41:24;;;;;;;9.43;5.60;;;16.90;88.40;;;;;;5054977;28;20518;-61
2023/03/18 11:44:00;;;;;;;10.07;5.50;;;16.90;88.80;;;;;;5054804;28;20455;-62
2023/03/18 11:46:30;;;;;;;9.40;5.20;;;16.90;88.30;;;;;;5055427;28;20451;-62
2023/03/18 11:48:58;;;;;;;8.23;5.50;;;16.90;88.20;;;;;;5054801;28;20465;-62
2023/03/18 11:51:39;;;;;;;8.10;4.73;;;17.00;89.10;;;;;;5054745;28;20462;-62
2023/03/18 11:54:23;;;;;;;9.00;4.70;;;17.30;89.50;;;;;;5054750;28;20436;-62
2023/03/18 11:56:54;;;;;;;10.23;6.53;;;17.50;89.70;;;;;;5055077;28;20530;-63
2023/03/18 11:59:30;;;;;;;6.47;4.83;;;17.60;90.00;;;;;;5054361;28;20976;-60
2023/03/18 12:02:16;;;;;;;7.67;4.87;;;18.00;88.60;;;;;;5054359;28;20443;-62
2023/03/18 12:05:04;;;;;;;13.33;5.33;;;18.60;86.00;;;;;;5051506;28;20459;-63
2023/03/18 12:07:47;;;;;;;7.07;5.03;;;19.30;82.10;;;;;;5055166;28;20509;-62
2023/03/18 12:10:22;;;;;;;10.20;4.93;;;20.10;77.30;;;;;;5054940;28;20827;-62
2023/03/18 12:13:03;;;;;;;5.13;4.30;;;20.80;74.10;;;;;;5055068;28;20481;-62
2023/03/18 12:15:43;;;;;;;11.30;5.60;;;21.10;69.70;;;;;;5053854;28;20490;-62
2023/03/18 12:18:23;;;;;;;8.73;4.90;;;21.40;65.70;;;;;;5054480;28;20816;-62
2023/03/18 12:20:51;;;;;;;6.67;4.70;;;21.70;63.40;;;;;;5053651;28;20477;-62
2023/03/18 12:23:41;;;;;;;5.13;4.23;;;22.30;60.50;;;;;;5056011;28;20499;-61
2023/03/18 12:26:14;;;;;;;7.27;4.43;;;22.60;57.70;;;;;;5051942;28;20471;-63
2023/03/18 12:29:11;;;;;;;6.00;4.60;;;22.90;56.60;;;;;;5059141;28;20447;-62
2023/03/18 12:32:00;;;;;;;8.10;3.80;;;23.30;55.50;;;;;;5045982;28;20470;-63
2023/03/18 12:34:56;;;;;;;5.90;3.93;;;23.40;54.20;;;;;;5057120;28;20502;-63
2023/03/18 12:37:37;;;;;;;7.73;3.97;;;23.60;53.50;;;;;;5057398;28;20519;-64
2023/03/18 12:40:31;;;;;;;6.07;3.80;;;23.10;53.40;;;;;;5060451;28;20463;-63
2023/03/18 12:43:23;;;;;;;5.30;4.10;;;23.10;54.30;;;;;;5059822;28;20497;-66
2023/03/18 12:45:53;;;;;;;4.67;3.80;;;23.10;54.20;;;;;;5060828;28;20451;-65
2023/03/18 12:48:26;;;;;;;5.87;3.57;;;23.20;53.60;;;;;;5060836;28;20774;-65
2023/03/18 12:50:58;;;;;;;6.77;3.60;;;23.30;53.30;;;;;;5058940;28;20523;-67
2023/03/18 12:53:30;;;;;;;6.57;4.03;;;23.00;52.70;;;;;;5060268;28;20443;-66
2023/03/18 12:56:01;;;;;;;4.13;3.73;;;23.30;53.70;;;;;;5060645;28;20770;-66
2023/03/18 12:58:31;;;;;;;5.00;4.07;;;22.60;52.40;;;;;;5057940;28;20445;-64
2023/03/18 13:01:05;;;;;;;6.00;3.87;;;22.10;54.00;;;;;;5058649;28;20786;-66
2023/03/18 13:03:36;;;;;;;5.87;3.77;;;21.90;55.70;;;;;;5059572;28;20526;-69